Time;durP1;ratioP1;P1;durP2;ratioP2;P2;SDS_P1;SDS_P2;PMS_P1;PMS_P2;Temp;Humidity;BMP_temperature;BMP_pressure;BME280_temperature;BME280_humidity;BME280_pressure;Samples;Min_cycle;Max_cycle;Signal;HPM_P1;HPM_P2
2021/03/08 00:02:19;;;;;;;73.77;42.10;;;;;;;;;;5022537;28;38847;-79
2021/03/08 00:04:46;;;;;;;67.60;37.00;;;;;;;;;;5041128;28;38070;-78
2021/03/08 00:07:12;;;;;;;75.37;40.20;;;;;;;;;;5032960;28;35921;-75
2021/03/08 00:09:40;;;;;;;69.50;38.80;;;;;;;;;;5033328;28;39514;-76
2021/03/08 00:12:07;;;;;;;75.70;40.30;;;;;;;;;;5018242;28;40102;-76
2021/03/08 00:14:34;;;;;;;74.67;41.77;;;;;;;;;;5023412;28;38280;-76
2021/03/08 00:17:01;;;;;;;68.33;37.83;;;;;;;;;;5029205;28;37768;-76
2021/03/08 00:19:27;;;;;;;75.93;40.83;;;;;;;;;;5028484;28;47232;-76
2021/03/08 00:21:54;;;;;;;69.77;41.50;;;;;;;;;;5032985;28;37320;-76
2021/03/08 00:24:20;;;;;;;66.87;37.67;;;;;;;;;;5027999;28;38463;-79
2021/03/08 00:26:46;;;;;;;70.27;39.20;;;;;;;;;;5012250;28;37464;-78
2021/03/08 00:29:13;;;;;;;65.47;37.47;;;;;;;;;;5010725;28;38021;-80
2021/03/08 00:31:39;;;;;;;66.33;37.87;;;;;;;;;;5026332;28;39141;-78
2021/03/08 00:34:05;;;;;;;68.63;36.73;;;;;;;;;;5027356;28;38302;-78
2021/03/08 00:36:32;;;;;;;61.73;35.60;;;;;;;;;;5018624;28;36262;-82
2021/03/08 00:38:58;;;;;;;61.17;36.30;;;;;;;;;;5025724;28;39243;-83
2021/03/08 00:41:25;;;;;;;62.77;37.37;;;;;;;;;;5034280;28;36824;-76
2021/03/08 00:43:51;;;;;;;63.93;37.97;;;;;;;;;;5021961;28;38298;-76
2021/03/08 00:46:17;;;;;;;62.90;35.00;;;;;;;;;;5034113;28;36257;-76
2021/03/08 00:48:44;;;;;;;62.53;37.07;;;;;;;;;;5021357;28;39422;-77
2021/03/08 00:51:10;;;;;;;65.93;37.33;;;;;;;;;;5021368;28;38769;-76
2021/03/08 00:53:36;;;;;;;64.00;37.07;;;;;;;;;;5017661;28;39550;-77
2021/03/08 00:56:03;;;;;;;64.77;36.60;;;;;;;;;;5030116;28;35788;-76
2021/03/08 00:58:29;;;;;;;69.57;39.17;;;;;;;;;;5026684;28;38724;-80
2021/03/08 01:00:56;;;;;;;61.40;37.00;;;;;;;;;;5038553;28;38895;-78
2021/03/08 01:03:22;;;;;;;69.17;37.37;;;;;;;;;;5041645;28;39095;-77
2021/03/08 01:05:48;;;;;;;67.93;38.60;;;;;;;;;;5026868;28;36822;-76
2021/03/08 01:08:15;;;;;;;62.30;37.13;;;;;;;;;;5046753;28;39575;-77
2021/03/08 01:10:41;;;;;;;68.13;39.60;;;;;;;;;;5011514;28;38103;-76
2021/03/08 01:13:08;;;;;;;68.87;40.43;;;;;;;;;;5053596;28;38730;-77
2021/03/08 01:15:34;;;;;;;64.97;37.67;;;;;;;;;;5041786;28;37338;-77
2021/03/08 01:18:01;;;;;;;63.53;38.37;;;;;;;;;;5049032;28;39359;-76
2021/03/08 01:20:28;;;;;;;70.83;40.23;;;;;;;;;;5016199;28;47765;-78
2021/03/08 01:22:54;;;;;;;62.27;38.07;;;;;;;;;;5021052;28;37838;-77
2021/03/08 01:25:22;;;;;;;70.23;38.70;;;;;;;;;;5023293;28;38269;-78
2021/03/08 01:27:49;;;;;;;67.30;40.33;;;;;;;;;;5022373;28;37968;-80
2021/03/08 01:30:20;;;;;;;78.17;38.70;;;;;;;;;;5034522;28;38786;-80
2021/03/08 01:32:47;;;;;;;62.73;36.00;;;;;;;;;;5028081;28;38165;-79
2021/03/08 01:35:14;;;;;;;61.73;36.17;;;;;;;;;;5022959;28;38463;-80
2021/03/08 01:37:40;;;;;;;60.13;34.97;;;;;;;;;;5023639;28;39106;-80
2021/03/08 01:40:11;;;;;;;52.20;32.07;;;;;;;;;;5033070;28;39107;-81
2021/03/08 01:42:38;;;;;;;58.37;34.57;;;;;;;;;;5026300;28;40017;-78
2021/03/08 01:45:06;;;;;;;56.07;33.13;;;;;;;;;;5035365;28;36251;-80
2021/03/08 01:47:33;;;;;;;51.67;31.17;;;;;;;;;;5038051;28;40039;-77
2021/03/08 01:49:59;;;;;;;50.53;31.20;;;;;;;;;;5010756;28;38728;-80
2021/03/08 01:52:26;;;;;;;52.30;30.93;;;;;;;;;;5027516;28;37581;-76
2021/03/08 01:54:53;;;;;;;53.13;31.50;;;;;;;;;;5017527;28;37405;-78
2021/03/08 01:57:20;;;;;;;51.43;30.43;;;;;;;;;;5035341;28;39195;-75
2021/03/08 01:59:46;;;;;;;51.03;29.60;;;;;;;;;;5020022;28;39034;-75
2021/03/08 02:02:12;;;;;;;48.20;29.43;;;;;;;;;;5017929;28;37854;-76
2021/03/08 02:04:39;;;;;;;46.60;29.87;;;;;;;;;;5019917;28;37781;-77
2021/03/08 02:07:06;;;;;;;51.23;31.27;;;;;;;;;;5017075;28;39796;-79
2021/03/08 02:09:32;;;;;;;45.90;29.30;;;;;;;;;;5046191;28;38546;-77
2021/03/08 02:12:01;;;;;;;56.23;33.57;;;;;;;;;;5048442;28;40092;-78
2021/03/08 02:14:38;;;;;;;52.97;31.97;;;;;;;;;;5014226;28;49890;-78
2021/03/08 02:17:08;;;;;;;50.53;30.83;;;;;;;;;;5049605;28;39530;-79
2021/03/08 02:20:07;;;;;;;51.00;31.57;;;;;;;;;;5050442;27;38839;-77
2021/03/08 02:22:52;;;;;;;52.50;30.97;;;;;;;;;;5005201;28;48749;-77
2021/03/08 02:25:32;;;;;;;49.20;29.53;;;;;;;;;;5055391;28;35930;-75
2021/03/08 02:28:17;;;;;;;51.97;30.30;;;;;;;;;;5050344;28;37672;-76
2021/03/08 02:30:49;;;;;;;52.73;29.40;;;;;;;;;;5045512;28;47369;-83
2021/03/08 02:33:19;;;;;;;49.10;28.90;;;;;;;;;;5046054;28;37054;-78
2021/03/08 02:35:47;;;;;;;51.07;31.63;;;;;;;;;;5042907;28;37841;-79
2021/03/08 02:38:17;;;;;;;48.37;28.90;;;;;;;;;;5047924;28;42835;-78
2021/03/08 02:41:04;;;;;;;48.87;30.20;;;;;;;;;;5040341;28;38608;-75
2021/03/08 02:43:33;;;;;;;48.53;29.93;;;;;;;;;;5028034;27;48584;-78
2021/03/08 02:46:01;;;;;;;48.70;28.97;;;;;;;;;;5047273;27;37447;-77
2021/03/08 02:48:28;;;;;;;49.67;30.63;;;;;;;;;;5029322;28;47627;-79
2021/03/08 02:50:55;;;;;;;50.57;29.83;;;;;;;;;;5022078;28;37759;-76
2021/03/08 02:53:22;;;;;;;46.93;30.43;;;;;;;;;;5015223;28;38421;-81
2021/03/08 02:55:53;;;;;;;47.47;29.00;;;;;;;;;;5014624;28;34277;-76
2021/03/08 02:58:21;;;;;;;48.17;30.00;;;;;;;;;;5022112;28;40393;-79
2021/03/08 03:00:48;;;;;;;45.33;27.90;;;;;;;;;;5021280;28;38827;-79
2021/03/08 03:03:14;;;;;;;44.30;27.00;;;;;;;;;;5031179;28;37098;-76
2021/03/08 03:05:42;;;;;;;47.87;30.33;;;;;;;;;;5041974;28;37744;-80
2021/03/08 03:08:09;;;;;;;51.93;31.03;;;;;;;;;;5039662;28;40747;-79
2021/03/08 03:10:36;;;;;;;49.17;30.33;;;;;;;;;;5030202;28;39073;-76
2021/03/08 03:13:03;;;;;;;50.40;29.93;;;;;;;;;;5015929;28;40022;-79
2021/03/08 03:15:32;;;;;;;45.53;28.20;;;;;;;;;;5016355;28;38808;-77
2021/03/08 03:17:59;;;;;;;51.13;30.60;;;;;;;;;;5009814;28;40726;-76
2021/03/08 03:20:26;;;;;;;50.57;31.07;;;;;;;;;;5024107;28;40093;-78
2021/03/08 03:22:52;;;;;;;47.63;31.37;;;;;;;;;;5045475;27;38181;-80
2021/03/08 03:25:21;;;;;;;55.40;32.23;;;;;;;;;;5056532;27;37463;-76
2021/03/08 03:27:48;;;;;;;55.63;31.67;;;;;;;;;;5060440;27;39449;-76
2021/03/08 03:30:17;;;;;;;54.47;33.37;;;;;;;;;;5042600;27;39287;-76
2021/03/08 03:32:44;;;;;;;58.10;35.73;;;;;;;;;;5030862;28;38514;-75
2021/03/08 03:35:12;;;;;;;53.33;32.20;;;;;;;;;;5029002;28;37370;-77
2021/03/08 03:37:39;;;;;;;54.47;33.50;;;;;;;;;;5050798;28;40254;-78
2021/03/08 03:40:07;;;;;;;55.67;35.07;;;;;;;;;;5044744;28;38655;-77
2021/03/08 03:42:34;;;;;;;55.90;34.30;;;;;;;;;;5055550;27;38994;-75
2021/03/08 03:45:00;;;;;;;58.43;35.03;;;;;;;;;;5057305;27;37928;-78
2021/03/08 03:47:27;;;;;;;54.97;33.53;;;;;;;;;;5037160;28;39534;-78
2021/03/08 03:49:53;;;;;;;53.80;32.43;;;;;;;;;;5023037;28;38847;-77
2021/03/08 03:52:20;;;;;;;52.77;34.17;;;;;;;;;;5029429;28;39492;-79
2021/03/08 03:54:47;;;;;;;51.20;33.17;;;;;;;;;;5026018;28;35925;-78
2021/03/08 03:57:14;;;;;;;58.20;34.97;;;;;;;;;;5030476;28;40164;-76
2021/03/08 03:59:52;;;;;;;56.60;34.30;;;;;;;;;;5028772;27;38497;-77
2021/03/08 04:02:23;;;;;;;59.83;34.77;;;;;;;;;;5024027;28;37718;-77
2021/03/08 04:04:53;;;;;;;50.03;32.20;;;;;;;;;;5024629;28;37053;-78
2021/03/08 04:07:20;;;;;;;49.97;32.30;;;;;;;;;;5023921;28;38633;-77
2021/03/08 04:09:49;;;;;;;54.30;33.53;;;;;;;;;;5034054;28;39059;-77
2021/03/08 04:12:17;;;;;;;50.17;31.57;;;;;;;;;;5064788;28;39322;-77
2021/03/08 04:14:46;;;;;;;56.33;34.73;;;;;;;;;;5043591;28;37454;-76
2021/03/08 04:17:13;;;;;;;53.17;33.00;;;;;;;;;;5060666;27;40833;-76
2021/03/08 04:19:40;;;;;;;54.07;32.83;;;;;;;;;;5041180;28;38686;-80
2021/03/08 04:22:09;;;;;;;52.93;33.73;;;;;;;;;;5046675;27;39560;-76
2021/03/08 04:24:36;;;;;;;55.77;32.53;;;;;;;;;;5039034;28;38667;-77
2021/03/08 04:27:06;;;;;;;54.93;34.40;;;;;;;;;;5041417;28;39142;-77
2021/03/08 04:29:34;;;;;;;51.53;32.20;;;;;;;;;;5046516;28;39122;-79
2021/03/08 04:32:01;;;;;;;53.07;33.40;;;;;;;;;;5043816;27;38321;-76
2021/03/08 04:34:28;;;;;;;54.50;31.43;;;;;;;;;;5041113;28;48978;-76
2021/03/08 04:36:54;;;;;;;56.77;33.90;;;;;;;;;;5048851;28;40017;-76
2021/03/08 04:39:21;;;;;;;56.73;34.43;;;;;;;;;;5044420;28;39188;-77
2021/03/08 04:41:48;;;;;;;57.50;32.67;;;;;;;;;;5053679;27;38512;-76
2021/03/08 04:44:14;;;;;;;56.87;33.73;;;;;;;;;;5049498;27;37834;-77
2021/03/08 04:46:40;;;;;;;53.33;32.83;;;;;;;;;;5047912;28;39414;-75
2021/03/08 04:49:07;;;;;;;54.53;33.40;;;;;;;;;;5040353;28;38699;-78
2021/03/08 04:51:35;;;;;;;56.07;33.50;;;;;;;;;;5039247;27;38993;-76
2021/03/08 04:54:03;;;;;;;53.20;32.93;;;;;;;;;;5035985;28;38109;-76
2021/03/08 04:56:30;;;;;;;55.50;32.07;;;;;;;;;;5039398;28;38527;-80
2021/03/08 04:58:57;;;;;;;56.83;33.07;;;;;;;;;;5047291;27;39598;-77
2021/03/08 05:01:24;;;;;;;58.93;35.00;;;;;;;;;;5052322;27;40040;-76
2021/03/08 05:03:51;;;;;;;55.87;33.47;;;;;;;;;;5038922;28;37345;-79
2021/03/08 05:06:18;;;;;;;54.47;32.60;;;;;;;;;;5054580;27;38170;-76
2021/03/08 05:08:46;;;;;;;55.67;33.50;;;;;;;;;;5041408;28;38407;-77
2021/03/08 05:11:12;;;;;;;59.83;34.70;;;;;;;;;;5044472;28;36936;-77
2021/03/08 05:13:40;;;;;;;55.27;34.43;;;;;;;;;;5049061;28;35752;-79
2021/03/08 05:16:07;;;;;;;53.60;33.70;;;;;;;;;;5050619;28;39484;-77
2021/03/08 05:18:34;;;;;;;56.63;33.00;;;;;;;;;;5073926;27;39819;-77
2021/03/08 05:21:02;;;;;;;57.27;33.57;;;;;;;;;;5061009;28;38818;-77
2021/03/08 05:23:30;;;;;;;56.83;33.90;;;;;;;;;;5062153;28;47204;-78
2021/03/08 05:26:00;;;;;;;59.40;34.40;;;;;;;;;;5057511;27;40959;-78
2021/03/08 05:28:27;;;;;;;58.13;35.87;;;;;;;;;;5047973;27;38967;-78
2021/03/08 05:30:54;;;;;;;59.67;35.40;;;;;;;;;;5046477;28;39548;-77
2021/03/08 05:33:24;;;;;;;52.93;33.73;;;;;;;;;;5044685;27;37912;-76
2021/03/08 05:35:51;;;;;;;55.20;34.13;;;;;;;;;;5048302;28;38915;-78
2021/03/08 05:38:21;;;;;;;54.27;33.17;;;;;;;;;;5028861;28;38303;-77
2021/03/08 05:40:57;;;;;;;55.07;31.27;;;;;;;;;;5048634;28;38544;-77
2021/03/08 05:43:25;;;;;;;56.83;34.43;;;;;;;;;;5044841;28;36192;-75
2021/03/08 05:45:55;;;;;;;55.47;33.90;;;;;;;;;;5056524;28;39515;-76
2021/03/08 05:48:41;;;;;;;53.13;32.33;;;;;;;;;;5018935;28;39137;-77
2021/03/08 05:51:21;;;;;;;55.03;33.67;;;;;;;;;;5037930;28;40471;-79
2021/03/08 05:54:06;;;;;;;56.77;33.57;;;;;;;;;;5032937;28;38751;-79
2021/03/08 05:56:40;;;;;;;54.90;32.43;;;;;;;;;;5044951;28;47091;-80
2021/03/08 05:59:15;;;;;;;56.17;35.10;;;;;;;;;;5044599;28;39729;-77
2021/03/08 06:02:00;;;;;;;57.23;34.23;;;;;;;;;;5014379;28;39677;-77
2021/03/08 06:04:34;;;;;;;56.07;33.60;;;;;;;;;;5037715;28;37949;-79
2021/03/08 06:07:19;;;;;;;57.23;33.97;;;;;;;;;;5029023;28;39519;-78
2021/03/08 06:10:06;;;;;;;50.43;31.07;;;;;;;;;;5039138;28;47352;-78
2021/03/08 06:12:35;;;;;;;55.43;33.73;;;;;;;;;;5040800;28;48395;-77
2021/03/08 06:15:08;;;;;;;53.47;32.03;;;;;;;;;;5032185;28;37774;-74
2021/03/08 06:17:36;;;;;;;55.57;31.73;;;;;;;;;;5046876;28;47103;-74
2021/03/08 06:20:06;;;;;;;58.40;34.33;;;;;;;;;;5067674;28;39637;-75
2021/03/08 06:22:33;;;;;;;55.10;33.20;;;;;;;;;;5032259;28;48809;-77
2021/03/08 06:24:59;;;;;;;60.47;34.87;;;;;;;;;;5042487;28;37583;-80
2021/03/08 06:27:26;;;;;;;56.90;34.07;;;;;;;;;;5017865;28;38722;-77
2021/03/08 06:29:53;;;;;;;51.97;33.13;;;;;;;;;;5029459;27;39511;-77
2021/03/08 06:32:20;;;;;;;59.63;34.07;;;;;;;;;;5032781;28;37480;-75
2021/03/08 06:34:47;;;;;;;56.23;33.03;;;;;;;;;;5028564;28;37247;-76
2021/03/08 06:37:14;;;;;;;61.13;33.43;;;;;;;;;;5026403;27;39151;-75
2021/03/08 06:39:45;;;;;;;57.97;34.83;;;;;;;;;;5045813;27;39801;-76
2021/03/08 06:42:12;;;;;;;56.57;32.43;;;;;;;;;;5045342;27;38307;-76
2021/03/08 06:44:39;;;;;;;53.33;32.80;;;;;;;;;;5057592;27;38967;-77
2021/03/08 06:47:06;;;;;;;59.17;34.17;;;;;;;;;;5077482;27;39810;-76
2021/03/08 06:49:33;;;;;;;56.70;34.67;;;;;;;;;;5060801;27;37407;-77
2021/03/08 06:52:03;;;;;;;55.83;33.60;;;;;;;;;;5042381;28;38728;-76
2021/03/08 06:54:30;;;;;;;56.17;33.37;;;;;;;;;;5050161;27;48791;-76
2021/03/08 06:56:57;;;;;;;55.00;33.50;;;;;;;;;;5043650;28;38916;-76
2021/03/08 06:59:23;;;;;;;57.77;33.03;;;;;;;;;;5069523;27;38712;-77
2021/03/08 07:01:52;;;;;;;57.47;33.77;;;;;;;;;;5049025;28;37524;-76
2021/03/08 07:04:19;;;;;;;52.10;32.40;;;;;;;;;;5044467;27;37236;-76
2021/03/08 07:07:18;;;;;;;53.00;31.77;;;;;;;;;;5037383;28;39581;-77
2021/03/08 07:09:49;;;;;;;54.57;32.40;;;;;;;;;;5010169;28;47300;-75
2021/03/08 07:12:16;;;;;;;52.30;32.47;;;;;;;;;;5046275;28;39029;-78
2021/03/08 07:14:43;;;;;;;52.77;30.77;;;;;;;;;;5040418;27;37081;-79
2021/03/08 07:17:28;;;;;;;53.10;32.33;;;;;;;;;;5038994;28;40148;-75
2021/03/08 07:19:55;;;;;;;53.00;30.43;;;;;;;;;;5050721;28;36552;-75
2021/03/08 07:22:40;;;;;;;48.93;30.13;;;;;;;;;;5034046;28;37185;-75
2021/03/08 07:25:07;;;;;;;49.97;31.50;;;;;;;;;;5061491;27;36208;-74
2021/03/08 07:27:41;;;;;;;54.70;31.93;;;;;;;;;;5041933;28;40042;-74
2021/03/08 07:30:07;;;;;;;53.37;31.07;;;;;;;;;;5036825;28;41289;-74
2021/03/08 07:32:34;;;;;;;52.60;31.40;;;;;;;;;;5034674;28;37359;-78
2021/03/08 07:35:00;;;;;;;50.50;30.73;;;;;;;;;;5054684;28;37006;-74
2021/03/08 07:37:27;;;;;;;52.27;31.23;;;;;;;;;;5055230;28;36364;-75
2021/03/08 07:39:53;;;;;;;50.13;30.47;;;;;;;;;;5038993;28;37211;-74
2021/03/08 07:42:20;;;;;;;52.17;29.73;;;;;;;;;;5040144;28;37065;-77
2021/03/08 07:44:51;;;;;;;42.47;27.10;;;;;;;;;;5037777;28;35823;-74
2021/03/08 07:47:21;;;;;;;50.40;29.77;;;;;;;;;;5035958;28;39037;-75
2021/03/08 07:49:48;;;;;;;51.40;30.10;;;;;;;;;;5036081;28;37999;-75
2021/03/08 07:52:17;;;;;;;46.67;28.77;;;;;;;;;;5033453;28;38407;-76
2021/03/08 07:54:52;;;;;;;43.43;28.07;;;;;;;;;;5019687;28;37587;-77
2021/03/08 07:57:19;;;;;;;49.10;29.87;;;;;;;;;;5018478;28;38583;-74
2021/03/08 07:59:45;;;;;;;46.27;29.63;;;;;;;;;;5030477;28;40021;-75
2021/03/08 08:02:12;;;;;;;49.40;29.53;;;;;;;;;;5021368;28;38228;-79
2021/03/08 08:04:38;;;;;;;46.60;29.57;;;;;;;;;;5027820;28;37618;-79
2021/03/08 08:07:06;;;;;;;49.37;29.60;;;;;;;;;;5030638;28;39663;-77
2021/03/08 08:09:34;;;;;;;48.60;27.90;;;;;;;;;;5046681;27;37439;-75
2021/03/08 08:12:00;;;;;;;43.30;27.13;;;;;;;;;;5015885;28;38050;-75
2021/03/08 08:14:27;;;;;;;45.07;27.67;;;;;;;;;;5024875;28;47043;-75
2021/03/08 08:16:54;;;;;;;49.07;28.93;;;;;;;;;;5026849;28;40082;-78
2021/03/08 08:19:21;;;;;;;48.70;30.03;;;;;;;;;;5033416;28;39672;-77
2021/03/08 08:21:47;;;;;;;51.00;29.23;;;;;;;;;;5037983;28;39161;-76
2021/03/08 08:24:23;;;;;;;41.73;26.37;;;;;;;;;;5044312;28;38425;-76
2021/03/08 08:26:54;;;;;;;52.37;28.73;;;;;;;;;;5037692;28;40742;-77
2021/03/08 08:29:22;;;;;;;47.13;28.97;;;;;;;;;;5040418;28;38742;-77
2021/03/08 08:32:03;;;;;;;46.17;26.77;;;;;;;;;;5039659;28;38175;-76
2021/03/08 08:34:39;;;;;;;43.97;28.33;;;;;;;;;;5038613;28;48855;-78
2021/03/08 08:37:07;;;;;;;47.30;27.70;;;;;;;;;;5052938;28;39743;-76
2021/03/08 08:39:33;;;;;;;48.40;28.63;;;;;;;;;;5044779;27;41279;-76
2021/03/08 08:42:38;;;;;;;43.77;26.40;;;;;;;;;;5056206;27;38461;-74
2021/03/08 08:45:40;;;;;;;40.07;26.17;;;;;;;;;;4998217;28;46996;-76
2021/03/08 08:48:07;;;;;;;48.30;26.90;;;;;;;;;;4924692;28;39643;-76
2021/03/08 08:50:46;;;;;;;45.27;28.00;;;;;;;;;;5010549;28;38377;-76
2021/03/08 08:53:13;;;;;;;43.83;26.57;;;;;;;;;;5045589;27;36236;-75
2021/03/08 08:55:39;;;;;;;52.43;27.90;;;;;;;;;;5032047;28;37357;-75
2021/03/08 08:58:19;;;;;;;46.10;27.97;;;;;;;;;;5054976;27;39895;-75
2021/03/08 09:01:04;;;;;;;43.63;27.07;;;;;;;;;;5042308;28;39803;-75
2021/03/08 09:03:51;;;;;;;42.20;25.77;;;;;;;;;;5044072;28;48848;-74
2021/03/08 09:06:36;;;;;;;43.90;26.60;;;;;;;;;;5033502;28;37349;-75
2021/03/08 09:09:02;;;;;;;45.63;29.07;;;;;;;;;;5050459;28;40014;-75
2021/03/08 09:11:42;;;;;;;43.83;26.70;;;;;;;;;;5057953;27;39220;-73
2021/03/08 09:14:25;;;;;;;47.33;26.93;;;;;;;;;;5052859;27;39523;-77
2021/03/08 09:17:11;;;;;;;45.75;28.17;;;;;;;;;;5034425;28;37059;-77
2021/03/08 09:19:38;;;;;;;45.77;26.40;;;;;;;;;;5019103;28;49211;-76
2021/03/08 09:22:25;;;;;;;45.90;26.80;;;;;;;;;;5039095;28;38651;-77
2021/03/08 09:24:59;;;;;;;44.70;26.20;;;;;;;;;;5053667;28;39175;-75
2021/03/08 09:27:27;;;;;;;43.73;26.60;;;;;;;;;;5037844;28;37953;-77
2021/03/08 09:29:54;;;;;;;48.03;28.43;;;;;;;;;;5044252;28;38587;-78
2021/03/08 09:32:20;;;;;;;42.40;26.67;;;;;;;;;;5056784;27;38799;-76
2021/03/08 09:34:47;;;;;;;42.07;26.17;;;;;;;;;;5029283;28;37962;-75
2021/03/08 09:37:13;;;;;;;40.37;25.47;;;;;;;;;;5035122;28;35787;-78
2021/03/08 09:39:53;;;;;;;41.73;23.90;;;;;;;;;;5022961;28;39057;-81
2021/03/08 09:42:20;;;;;;;40.60;23.73;;;;;;;;;;5022855;28;40643;-76
2021/03/08 09:44:47;;;;;;;39.77;25.37;;;;;;;;;;5018840;28;38124;-78
2021/03/08 09:47:13;;;;;;;41.47;24.13;;;;;;;;;;5021030;28;37086;-74
2021/03/08 09:49:55;;;;;;;34.10;22.67;;;;;;;;;;5023609;28;38871;-76
2021/03/08 09:52:34;;;;;;;32.70;21.93;;;;;;;;;;5055836;28;38811;-77
2021/03/08 09:55:01;;;;;;;40.13;23.30;;;;;;;;;;5040805;28;38774;-78
2021/03/08 09:57:45;;;;;;;36.10;22.13;;;;;;;;;;5044418;28;36873;-78
2021/03/08 10:00:13;;;;;;;35.93;23.13;;;;;;;;;;5055597;27;39710;-78
2021/03/08 10:02:40;;;;;;;36.20;21.83;;;;;;;;;;5043267;28;39687;-76
2021/03/08 10:05:08;;;;;;;35.97;22.37;;;;;;;;;;5046844;28;39027;-76
2021/03/08 10:07:34;;;;;;;29.47;19.17;;;;;;;;;;5043940;28;37531;-78
2021/03/08 10:10:10;;;;;;;36.17;20.30;;;;;;;;;;5038960;28;40497;-75
2021/03/08 10:12:37;;;;;;;36.00;19.70;;;;;;;;;;5053901;28;47596;-75
2021/03/08 10:15:04;;;;;;;31.33;19.87;;;;;;;;;;5060030;27;38382;-76
2021/03/08 10:17:30;;;;;;;32.80;19.73;;;;;;;;;;5060926;28;37782;-78
2021/03/08 10:19:57;;;;;;;36.40;21.20;;;;;;;;;;5052148;28;39377;-75
2021/03/08 10:22:37;;;;;;;34.63;21.83;;;;;;;;;;5022575;28;38088;-74
2021/03/08 10:25:23;;;;;;;32.47;19.20;;;;;;;;;;5032392;28;37115;-76
2021/03/08 10:28:00;;;;;;;29.13;18.23;;;;;;;;;;5017748;28;49183;-75
2021/03/08 10:30:30;;;;;;;29.87;16.50;;;;;;;;;;5021553;28;39712;-75
2021/03/08 10:33:08;;;;;;;28.43;17.20;;;;;;;;;;5023557;28;39772;-75
2021/03/08 10:35:36;;;;;;;29.33;18.40;;;;;;;;;;5024275;28;48387;-75
2021/03/08 10:38:03;;;;;;;32.70;20.53;;;;;;;;;;5019707;28;37377;-77
2021/03/08 10:40:30;;;;;;;29.97;18.47;;;;;;;;;;5019368;28;40566;-76
2021/03/08 10:43:00;;;;;;;31.97;20.60;;;;;;;;;;5034278;28;38488;-80
2021/03/08 10:45:27;;;;;;;30.93;19.63;;;;;;;;;;5048832;28;38822;-76
2021/03/08 10:48:06;;;;;;;34.33;19.97;;;;;;;;;;5059555;28;38743;-75
2021/03/08 10:50:39;;;;;;;27.60;17.97;;;;;;;;;;5032497;28;48536;-78
2021/03/08 10:53:06;;;;;;;29.37;17.10;;;;;;;;;;5043906;28;38050;-78
2021/03/08 10:55:33;;;;;;;30.53;19.57;;;;;;;;;;5051423;27;38826;-79
2021/03/08 10:57:59;;;;;;;29.43;18.43;;;;;;;;;;5038757;28;37313;-78
2021/03/08 11:00:26;;;;;;;29.67;19.63;;;;;;;;;;5053953;27;40314;-78
2021/03/08 11:02:52;;;;;;;30.77;19.43;;;;;;;;;;5034969;28;40037;-74
2021/03/08 11:05:19;;;;;;;30.90;20.03;;;;;;;;;;5067415;27;39603;-78
2021/03/08 11:07:46;;;;;;;29.27;18.90;;;;;;;;;;5039110;28;36725;-77
2021/03/08 11:10:13;;;;;;;26.17;17.73;;;;;;;;;;5024489;28;39857;-77
2021/03/08 11:12:39;;;;;;;29.13;18.67;;;;;;;;;;5028055;28;38722;-78
2021/03/08 11:15:06;;;;;;;30.33;19.13;;;;;;;;;;5025431;28;38015;-76
2021/03/08 11:17:40;;;;;;;29.05;17.92;;;;;;;;;;5022809;28;37857;-76
2021/03/08 11:20:22;;;;;;;29.08;17.63;;;;;;;;;;5023687;28;39820;-76
2021/03/08 11:23:08;;;;;;;26.98;17.13;;;;;;;;;;5018929;28;40717;-76
2021/03/08 11:25:38;;;;;;;32.27;18.70;;;;;;;;;;5016527;28;49963;-77
2021/03/08 11:28:07;;;;;;;29.70;17.70;;;;;;;;;;5019572;28;37122;-77
2021/03/08 11:30:33;;;;;;;31.93;19.67;;;;;;;;;;5017548;28;39135;-77
2021/03/08 11:33:00;;;;;;;29.50;18.03;;;;;;;;;;5025114;28;37680;-77
2021/03/08 11:35:28;;;;;;;30.65;19.52;;;;;;;;;;5017361;28;47535;-77
2021/03/08 11:37:57;;;;;;;29.67;20.40;;;;;;;;;;5023050;28;37342;-78
2021/03/08 11:40:24;;;;;;;35.58;20.27;;;;;;;;;;5019983;28;37776;-79
2021/03/08 11:42:51;;;;;;;30.88;19.42;;;;;;;;;;5042669;28;39779;-79
2021/03/08 11:45:18;;;;;;;27.23;17.43;;;;;;;;;;5023455;28;38490;-78
2021/03/08 11:47:45;;;;;;;26.15;17.83;;;;;;;;;;5041332;28;37376;-77
2021/03/08 11:50:12;;;;;;;29.40;20.25;;;;;;;;;;5059316;28;40581;-77
2021/03/08 11:52:38;;;;;;;35.97;20.30;;;;;;;;;;5044396;28;39485;-76
2021/03/08 11:55:05;;;;;;;28.67;19.35;;;;;;;;;;5038470;28;38409;-76
2021/03/08 11:57:31;;;;;;;31.45;21.17;;;;;;;;;;5042496;28;37026;-76
2021/03/08 11:59:58;;;;;;;27.77;18.80;;;;;;;;;;5041622;28;38913;-77
2021/03/08 12:02:24;;;;;;;33.20;19.90;;;;;;;;;;5048526;27;38212;-78
2021/03/08 12:04:51;;;;;;;28.92;19.48;;;;;;;;;;5046170;28;38706;-77
2021/03/08 12:07:17;;;;;;;28.17;19.55;;;;;;;;;;5036126;28;39043;-77
2021/03/08 12:09:44;;;;;;;32.38;20.30;;;;;;;;;;5022488;28;40812;-78
2021/03/08 12:12:10;;;;;;;31.30;21.55;;;;;;;;;;5020046;28;37436;-78
2021/03/08 12:14:36;;;;;;;31.58;20.58;;;;;;;;;;5023663;28;38811;-78
2021/03/08 12:17:03;;;;;;;30.17;21.17;;;;;;;;;;5018216;28;38807;-78
2021/03/08 12:19:29;;;;;;;30.33;20.20;;;;;;;;;;5018906;28;40220;-79
2021/03/08 12:21:56;;;;;;;29.60;19.85;;;;;;;;;;5040904;28;38286;-75
2021/03/08 12:24:22;;;;;;;27.38;19.88;;;;;;;;;;5042979;28;37852;-76
2021/03/08 12:26:49;;;;;;;27.40;20.25;;;;;;;;;;5049851;28;38266;-77
2021/03/08 12:29:15;;;;;;;26.65;18.33;;;;;;;;;;5038299;28;38574;-76
2021/03/08 12:31:42;;;;;;;27.45;19.58;;;;;;;;;;5039187;28;38868;-75
2021/03/08 12:34:09;;;;;;;30.42;19.38;;;;;;;;;;5020697;28;39739;-75
2021/03/08 12:36:35;;;;;;;26.00;17.05;;;;;;;;;;5025710;28;37348;-74
2021/03/08 12:39:01;;;;;;;27.75;16.90;;;;;;;;;;5021814;28;40039;-75
2021/03/08 12:41:28;;;;;;;23.33;16.52;;;;;;;;;;5067065;28;47438;-75
2021/03/08 12:43:54;;;;;;;24.55;16.63;;;;;;;;;;5025502;28;37351;-75
2021/03/08 12:46:23;;;;;;;25.10;16.77;;;;;;;;;;5021702;28;35847;-75
2021/03/08 12:48:50;;;;;;;27.92;17.83;;;;;;;;;;5013811;28;40866;-76
2021/03/08 12:51:17;;;;;;;24.20;17.70;;;;;;;;;;5026960;28;38601;-77
2021/03/08 12:53:43;;;;;;;24.25;16.52;;;;;;;;;;5015356;28;38936;-76
2021/03/08 12:56:09;;;;;;;28.38;18.30;;;;;;;;;;5011163;28;37330;-75
2021/03/08 12:58:36;;;;;;;24.67;17.58;;;;;;;;;;5029243;28;38250;-76
2021/03/08 13:01:03;;;;;;;24.02;17.55;;;;;;;;;;5017300;28;39503;-79
2021/03/08 13:03:29;;;;;;;24.20;16.58;;;;;;;;;;5023809;28;40003;-78
2021/03/08 13:05:55;;;;;;;26.08;17.20;;;;;;;;;;5031838;28;37277;-77
2021/03/08 13:08:22;;;;;;;24.58;17.58;;;;;;;;;;5021697;28;38889;-78
2021/03/08 13:10:48;;;;;;;24.73;16.20;;;;;;;;;;5024467;28;39323;-76
2021/03/08 13:13:15;;;;;;;23.90;17.05;;;;;;;;;;5020281;28;38272;-77
2021/03/08 13:15:42;;;;;;;23.95;16.70;;;;;;;;;;5011426;28;37109;-76
2021/03/08 13:18:09;;;;;;;26.90;16.70;;;;;;;;;;5020418;28;39333;-76
2021/03/08 13:20:35;;;;;;;24.02;15.35;;;;;;;;;;5011890;28;37421;-78
2021/03/08 13:23:02;;;;;;;22.38;14.82;;;;;;;;;;5014586;28;37059;-77
2021/03/08 13:25:28;;;;;;;25.58;16.50;;;;;;;;;;5031948;28;38023;-77
2021/03/08 13:27:55;;;;;;;21.65;14.32;;;;;;;;;;5024764;28;38831;-78
2021/03/08 13:30:21;;;;;;;24.77;17.27;;;;;;;;;;5030364;28;39784;-77
2021/03/08 13:32:48;;;;;;;26.30;17.85;;;;;;;;;;5025892;28;39091;-80
2021/03/08 13:35:14;;;;;;;28.85;16.67;;;;;;;;;;5020843;28;36285;-81
2021/03/08 13:37:41;;;;;;;27.73;17.23;;;;;;;;;;5020105;28;38201;-79
2021/03/08 13:40:08;;;;;;;25.92;18.67;;;;;;;;;;5011602;28;38811;-82
2021/03/08 13:42:34;;;;;;;22.88;16.45;;;;;;;;;;5019294;28;37904;-79
2021/03/08 13:45:01;;;;;;;24.25;16.85;;;;;;;;;;5019119;28;36384;-80
2021/03/08 13:47:27;;;;;;;25.40;16.48;;;;;;;;;;5031224;28;40645;-79
2021/03/08 13:49:54;;;;;;;22.83;17.00;;;;;;;;;;5022639;28;39095;-80
2021/03/08 13:52:20;;;;;;;22.95;15.82;;;;;;;;;;5013703;28;39471;-80
2021/03/08 13:54:47;;;;;;;22.02;15.10;;;;;;;;;;5056057;28;38105;-79
2021/03/08 13:57:13;;;;;;;20.95;13.55;;;;;;;;;;5021205;28;39168;-79
2021/03/08 13:59:40;;;;;;;16.33;11.60;;;;;;;;;;5030237;28;38901;-81
2021/03/08 14:02:06;;;;;;;18.15;11.73;;;;;;;;;;5013140;28;38791;-80
2021/03/08 14:04:32;;;;;;;21.52;12.05;;;;;;;;;;5016951;28;37268;-79
2021/03/08 14:06:59;;;;;;;20.80;14.15;;;;;;;;;;5020922;28;37695;-80
2021/03/08 14:09:25;;;;;;;26.08;15.52;;;;;;;;;;5022550;28;37549;-78
2021/03/08 14:11:51;;;;;;;24.88;16.17;;;;;;;;;;5034642;28;40410;-79
2021/03/08 14:14:18;;;;;;;23.90;14.25;;;;;;;;;;5047511;28;37083;-81
2021/03/08 14:16:44;;;;;;;20.55;14.07;;;;;;;;;;5039240;28;39191;-78
2021/03/08 14:19:11;;;;;;;19.02;13.32;;;;;;;;;;5039584;28;37259;-75
2021/03/08 14:21:37;;;;;;;22.02;14.55;;;;;;;;;;5074622;27;37060;-76
2021/03/08 14:24:04;;;;;;;20.40;13.55;;;;;;;;;;5054643;28;37387;-79
2021/03/08 14:26:30;;;;;;;22.63;14.25;;;;;;;;;;5047733;28;39147;-79
2021/03/08 14:28:56;;;;;;;22.70;14.55;;;;;;;;;;5035761;28;39244;-76